Time;durP1;ratioP1;P1;durP2;ratioP2;P2;SDS_P1;SDS_P2;PMS_P1;PMS_P2;Temp;Humidity;BMP_temperature;BMP_pressure;BME280_temperature;BME280_humidity;BME280_pressure;Samples;Min_cycle;Max_cycle;Signal;HPM_P1;HPM_P2
2022/02/10 00:19:41;;;;;;;14.65;4.10;;;9.30;99.90;;;;;;4897799;29;20068;-81
2022/02/10 00:35:38;;;;;;;11.48;4.25;;;8.80;99.90;;;;;;4860856;29;20475;-82
2022/02/10 00:38:04;;;;;;;11.77;3.38;;;8.80;99.90;;;;;;4858110;29;20156;-81
2022/02/10 00:40:34;;;;;;;11.48;4.53;;;8.80;99.90;;;;;;4860057;29;20041;-81
2022/02/10 00:43:02;;;;;;;17.67;4.00;;;8.70;99.90;;;;;;4861081;29;20048;-81
2022/02/10 00:45:30;;;;;;;16.30;3.78;;;8.80;99.90;;;;;;4860475;29;20038;-81
2022/02/10 00:48:00;;;;;;;13.75;3.88;;;8.70;99.90;;;;;;4860462;29;20582;-81
2022/02/10 00:50:27;;;;;;;14.20;4.45;;;8.70;99.90;;;;;;4860363;29;20029;-81
2022/02/10 00:53:01;;;;;;;14.73;3.97;;;9.20;99.90;;;;;;4857359;29;20523;-81
2022/02/10 00:55:29;;;;;;;14.85;3.97;;;9.10;99.90;;;;;;4868153;29;20037;-81
2022/02/10 00:57:55;;;;;;;13.80;3.65;;;8.70;99.90;;;;;;4897597;29;20051;-81
2022/02/10 01:11:13;;;;;;;12.48;3.90;;;8.50;99.90;;;;;;4953084;29;20042;-81
2022/02/10 01:24:36;;;;;;;13.02;3.75;;;8.30;99.90;;;;;;4954225;28;20038;-81
2022/02/10 01:29:47;;;;;;;14.82;3.53;;;8.20;99.90;;;;;;4957976;28;20025;-81
2022/02/10 01:32:15;;;;;;;13.98;3.90;;;8.40;99.90;;;;;;4957532;28;20535;-81
2022/02/10 01:34:49;;;;;;;15.13;3.78;;;8.40;99.90;;;;;;4956948;29;20015;-81
2022/02/10 01:37:16;;;;;;;15.15;3.75;;;8.40;99.90;;;;;;4957715;28;20039;-81
2022/02/10 01:39:48;;;;;;;16.35;3.72;;;9.00;99.90;;;;;;4957664;28;20070;-81
2022/02/10 02:03:19;;;;;;;19.88;4.20;;;8.40;99.90;;;;;;4954914;29;20458;-81
2022/02/10 02:04:10;;;;;;;16.50;4.53;;;8.30;99.90;;;;;;4957717;28;20456;-81
2022/02/10 02:06:47;;;;;;;16.50;4.13;;;8.20;99.90;;;;;;4957257;28;20031;-81
2022/02/10 02:09:16;;;;;;;11.48;4.35;;;8.30;99.90;;;;;;4957033;28;20121;-81
2022/02/10 02:11:43;;;;;;;14.18;3.90;;;8.10;99.90;;;;;;4957133;28;20027;-81
2022/02/10 02:14:14;;;;;;;14.45;4.55;;;7.90;99.90;;;;;;4957730;28;20050;-81
2022/02/10 02:16:45;;;;;;;21.13;4.18;;;7.80;99.90;;;;;;4955304;29;20416;-82
2022/02/10 02:19:11;;;;;;;13.13;4.20;;;8.20;99.90;;;;;;4956755;28;20031;-81
2022/02/10 02:21:39;;;;;;;20.65;4.85;;;7.80;99.90;;;;;;4956881;28;20086;-81
2022/02/10 02:24:06;;;;;;;18.10;4.32;;;7.70;99.90;;;;;;4956783;28;20523;-81
2022/02/10 02:26:33;;;;;;;16.58;4.30;;;7.70;99.90;;;;;;4957019;28;20026;-82
2022/02/10 02:29:01;;;;;;;14.18;5.18;;;7.60;99.90;;;;;;4956349;28;20027;-81
2022/02/10 02:31:35;;;;;;;14.82;5.25;;;7.60;99.90;;;;;;4957148;28;20066;-81
2022/02/10 03:04:46;;;;;;;23.23;5.30;;;7.80;99.90;;;;;;4956642;28;20050;-81
2022/02/10 03:06:43;;;;;;;18.75;5.03;;;7.70;99.90;;;;;;4953512;28;20075;-81
2022/02/10 03:09:13;;;;;;;16.00;4.78;;;7.40;99.90;;;;;;4955996;28;20073;-81
2022/02/10 03:11:42;;;;;;;17.08;4.45;;;7.50;99.90;;;;;;4957108;28;20027;-81
2022/02/10 03:14:18;;;;;;;20.25;4.72;;;7.50;99.90;;;;;;4955423;28;20027;-82
2022/02/10 04:08:04;;;;;;;15.18;4.63;;;6.90;99.90;;;;;;4904677;29;20051;-81
2022/02/10 04:28:35;;;;;;;13.73;4.32;;;6.80;99.90;;;;;;4954903;28;20046;-81
2022/02/10 04:56:03;;;;;;;16.42;5.00;;;6.20;99.90;;;;;;4897546;29;20468;-81
2022/02/10 04:58:49;;;;;;;15.82;5.57;;;6.30;99.90;;;;;;4898694;29;20521;-81
2022/02/10 05:35:42;;;;;;;11.35;4.60;;;6.00;99.90;;;;;;4855456;29;20049;-81
2022/02/10 05:38:13;;;;;;;16.60;4.80;;;5.50;99.90;;;;;;4891023;29;20091;-81
2022/02/10 05:54:04;;;;;;;19.50;6.90;;;6.30;99.90;;;;;;4914412;29;20092;-81
2022/02/10 06:02:16;;;;;;;13.40;5.60;;;6.00;99.90;;;;;;4916511;29;20036;-82
2022/02/10 06:46:58;;;;;;;19.55;5.22;;;5.30;99.90;;;;;;4955748;28;20059;-81
2022/02/10 06:48:31;;;;;;;19.02;5.57;;;5.30;99.90;;;;;;4956690;28;20039;-81
2022/02/10 07:06:50;;;;;;;16.83;6.18;;;5.50;99.90;;;;;;4956162;28;20019;-81
2022/02/10 07:09:38;;;;;;;16.27;6.30;;;5.60;99.90;;;;;;4956118;28;20049;-81
2022/02/10 07:43:08;;;;;;;15.23;5.72;;;6.30;99.90;;;;;;4956384;28;20061;-83
2022/02/10 07:47:33;;;;;;;22.88;7.07;;;6.80;99.90;;;;;;4955853;28;20065;-81
2022/02/10 08:58:26;;;;;;;16.88;7.78;;;26.30;99.90;;;;;;4787487;29;20035;-82
2022/02/10 10:02:37;;;;;;;10.85;4.55;;;29.80;99.90;;;;;;4942558;28;20125;-82
2022/02/10 10:10:50;;;;;;;9.68;4.20;;;31.40;99.90;;;;;;4936336;29;20032;-82
2022/02/10 10:14:07;;;;;;;6.95;3.90;;;31.00;99.90;;;;;;4938288;29;20083;-82
2022/02/10 10:22:00;;;;;;;14.48;4.05;;;29.90;99.90;;;;;;4937926;29;20039;-82
2022/02/10 10:24:47;;;;;;;7.43;3.30;;;30.60;99.90;;;;;;4937985;29;20035;-82
2022/02/10 10:27:32;;;;;;;8.68;3.50;;;31.90;99.90;;;;;;4937937;29;20464;-82
2022/02/10 10:54:50;;;;;;;14.43;4.30;;;35.10;99.90;;;;;;4957235;28;20569;-83
2022/02/10 11:39:20;;;;;;;10.77;5.40;;;36.70;99.90;;;;;;4909680;29;20044;-82
2022/02/10 13:48:22;;;;;;;10.15;5.68;;;30.70;99.90;;;;;;4900621;29;20122;-83
2022/02/10 14:10:27;;;;;;;8.93;5.00;;;29.40;99.90;;;;;;4957167;28;20051;-82
2022/02/10 14:18:06;;;;;;;10.68;5.10;;;29.10;99.90;;;;;;4957223;28;20037;-82
2022/02/10 14:23:16;;;;;;;10.18;4.57;;;28.40;99.90;;;;;;4955904;28;20059;-82
2022/02/10 14:25:55;;;;;;;10.20;5.15;;;28.60;99.90;;;;;;4954787;29;20115;-82
2022/02/10 14:28:27;;;;;;;11.23;4.80;;;28.90;99.90;;;;;;4956576;28;20502;-82
2022/02/10 14:30:54;;;;;;;11.30;5.38;;;28.70;99.90;;;;;;4957021;28;20385;-82
2022/02/10 14:33:28;;;;;;;11.07;5.18;;;28.80;99.90;;;;;;4956442;28;20031;-82
2022/02/10 15:56:45;;;;;;;10.50;4.03;;;23.60;99.90;;;;;;4933987;29;20042;-82
2022/02/10 16:18:09;;;;;;;10.00;3.45;;;20.60;99.90;;;;;;4954381;28;20127;-82
2022/02/10 16:20:36;;;;;;;7.65;3.72;;;20.20;99.90;;;;;;4955307;28;20047;-82
2022/02/10 16:23:07;;;;;;;10.65;3.90;;;20.30;99.90;;;;;;4953583;28;20494;-82
2022/02/10 16:25:46;;;;;;;10.23;3.67;;;20.10;99.90;;;;;;4938425;29;20034;-82
2022/02/10 16:28:24;;;;;;;7.38;3.78;;;19.60;99.90;;;;;;4954953;28;20139;-82
2022/02/10 16:30:50;;;;;;;9.27;3.92;;;19.70;99.90;;;;;;4954573;28;20047;-81
2022/02/10 16:33:16;;;;;;;7.65;3.88;;;19.70;99.90;;;;;;4954249;28;20089;-82
2022/02/10 16:35:42;;;;;;;7.28;3.38;;;19.70;99.90;;;;;;4955199;28;20031;-82
2022/02/10 16:38:09;;;;;;;8.60;3.60;;;19.60;99.90;;;;;;4953854;28;20031;-81
2022/02/10 16:40:36;;;;;;;4.95;3.00;;;19.40;99.90;;;;;;4954033;28;20028;-82
2022/02/10 16:43:01;;;;;;;7.45;3.60;;;19.20;99.90;;;;;;4954430;28;20045;-82
2022/02/10 16:45:28;;;;;;;9.43;4.40;;;19.00;99.90;;;;;;4954673;28;20110;-81
2022/02/10 16:47:54;;;;;;;9.82;4.25;;;18.60;99.90;;;;;;4954262;28;20035;-82
2022/02/10 16:50:21;;;;;;;11.27;3.97;;;18.50;99.90;;;;;;4954883;28;20155;-81
2022/02/10 16:52:53;;;;;;;9.10;4.00;;;18.40;99.90;;;;;;4953548;29;20034;-81
2022/02/10 16:56:12;;;;;;;7.88;3.75;;;18.00;99.90;;;;;;4954263;28;20450;-82
2022/02/10 17:27:04;;;;;;;8.73;4.30;;;15.90;99.90;;;;;;4941707;28;20082;-82
2022/02/10 17:52:59;;;;;;;12.57;5.20;;;15.20;99.90;;;;;;4953809;29;20039;-81
2022/02/10 17:55:25;;;;;;;10.27;6.45;;;15.00;99.90;;;;;;4953768;28;20027;-81
2022/02/10 17:57:50;;;;;;;13.73;6.65;;;15.10;99.90;;;;;;4953471;28;20058;-81
2022/02/10 18:00:17;;;;;;;15.48;7.05;;;15.10;99.90;;;;;;4953764;28;20031;-82
2022/02/10 18:02:45;;;;;;;9.90;6.32;;;15.00;99.90;;;;;;4953701;28;20495;-81
2022/02/10 18:05:25;;;;;;;14.52;7.75;;;14.90;99.90;;;;;;4953801;28;20063;-82
2022/02/10 18:07:51;;;;;;;8.93;6.20;;;14.90;99.90;;;;;;4954872;28;20043;-82
2022/02/10 18:10:56;;;;;;;15.90;7.45;;;14.90;99.90;;;;;;4957306;28;20499;-82
2022/02/10 18:15:56;;;;;;;11.63;7.22;;;14.90;99.90;;;;;;4957036;28;20034;-82
2022/02/10 18:18:33;;;;;;;12.00;7.60;;;14.80;99.90;;;;;;4957029;28;20042;-81
2022/02/10 18:21:10;;;;;;;12.15;7.50;;;14.70;99.90;;;;;;4956981;28;20058;-81
2022/02/10 18:24:00;;;;;;;12.60;7.82;;;14.60;99.90;;;;;;4943168;28;20027;-81
2022/02/10 19:07:19;;;;;;;14.65;9.75;;;12.70;99.90;;;;;;4916875;29;20067;-84
2022/02/10 19:09:47;;;;;;;15.00;9.43;;;12.50;99.90;;;;;;4933465;29;20047;-85
2022/02/10 19:14:52;;;;;;;16.23;10.73;;;12.30;99.90;;;;;;4933183;29;20012;-84
2022/02/10 19:17:23;;;;;;;16.58;12.02;;;12.20;99.90;;;;;;4932897;29;20040;-82
2022/02/10 19:19:49;;;;;;;15.57;10.52;;;12.40;99.90;;;;;;4933081;29;20054;-82
2022/02/10 19:22:15;;;;;;;16.45;10.50;;;12.40;99.90;;;;;;4933127;29;20043;-85
2022/02/10 19:24:42;;;;;;;14.07;10.23;;;12.50;99.90;;;;;;4932639;29;20039;-85
2022/02/10 19:27:08;;;;;;;16.15;10.10;;;12.10;99.90;;;;;;4932830;29;20043;-85
2022/02/10 19:29:34;;;;;;;14.45;9.73;;;12.10;99.90;;;;;;4934888;28;20042;-84
2022/02/10 19:31:59;;;;;;;19.13;10.25;;;12.20;99.90;;;;;;4954103;28;20399;-85
2022/02/10 19:34:31;;;;;;;13.63;9.98;;;12.20;99.90;;;;;;4955547;28;20357;-84
2022/02/10 19:36:57;;;;;;;18.83;10.60;;;12.40;99.90;;;;;;4945618;28;20035;-85
2022/02/10 19:39:25;;;;;;;13.98;10.00;;;12.30;99.90;;;;;;4952591;28;20054;-85
2022/02/10 19:41:52;;;;;;;16.60;10.20;;;12.20;99.90;;;;;;4954509;28;20346;-86
2022/02/10 19:44:18;;;;;;;15.95;10.15;;;12.00;99.90;;;;;;4949473;28;20045;-85
2022/02/10 19:46:44;;;;;;;14.52;9.50;;;12.40;99.90;;;;;;4946482;29;20479;-84
2022/02/10 19:49:17;;;;;;;18.25;10.23;;;12.20;99.90;;;;;;4955672;28;20499;-88
2022/02/10 19:51:43;;;;;;;15.00;11.23;;;12.10;99.90;;;;;;4955287;28;20038;-84
2022/02/10 19:54:08;;;;;;;18.73;10.15;;;11.80;99.90;;;;;;4955081;28;20039;-84
2022/02/10 19:56:36;;;;;;;16.08;10.43;;;12.20;99.90;;;;;;4955483;28;20027;-84
2022/02/10 19:59:02;;;;;;;18.80;10.75;;;11.50;99.90;;;;;;4954359;28;20023;-84
2022/02/10 20:01:28;;;;;;;16.90;10.25;;;11.30;99.90;;;;;;4955345;28;20027;-85
2022/02/10 20:03:56;;;;;;;17.80;11.13;;;11.20;99.90;;;;;;4954699;28;20031;-85
2022/02/10 20:06:22;;;;;;;18.88;11.68;;;11.00;99.90;;;;;;4941611;29;20035;-85
2022/02/10 20:08:49;;;;;;;19.45;11.25;;;11.30;99.90;;;;;;4955408;28;20516;-85
2022/02/10 20:11:14;;;;;;;18.85;11.65;;;11.00;99.90;;;;;;4955012;28;20102;-84
2022/02/10 20:13:41;;;;;;;18.85;11.93;;;11.10;99.90;;;;;;4954155;28;20138;-85
2022/02/10 20:16:08;;;;;;;19.60;11.40;;;10.80;99.90;;;;;;4955071;28;20448;-85
2022/02/10 20:18:35;;;;;;;20.95;11.98;;;10.80;99.90;;;;;;4954251;28;20435;-86
2022/02/10 20:21:03;;;;;;;20.35;11.85;;;10.80;99.90;;;;;;4955117;28;20048;-85
2022/02/10 20:23:33;;;;;;;18.70;12.13;;;10.90;99.90;;;;;;4954561;28;20503;-86
2022/02/10 20:25:59;;;;;;;22.60;12.88;;;11.10;99.90;;;;;;4953155;28;20104;-85
2022/02/10 20:28:27;;;;;;;18.70;11.98;;;10.60;99.90;;;;;;4955134;28;20039;-84
2022/02/10 20:30:52;;;;;;;16.33;12.25;;;10.50;99.90;;;;;;4954045;28;20098;-84
2022/02/10 20:33:21;;;;;;;16.73;11.65;;;10.50;99.90;;;;;;4954606;28;20511;-85
2022/02/10 20:35:50;;;;;;;17.48;12.45;;;10.70;99.90;;;;;;4954799;28;20070;-84
2022/02/10 20:38:18;;;;;;;22.52;13.68;;;10.70;99.90;;;;;;4954450;28;20038;-85
2022/02/10 20:40:46;;;;;;;23.88;17.25;;;10.90;99.90;;;;;;4954024;28;20400;-84
2022/02/10 20:43:13;;;;;;;19.33;15.75;;;10.70;99.90;;;;;;4954400;28;20114;-86
2022/02/10 20:45:39;;;;;;;21.70;15.48;;;10.60;99.90;;;;;;4953242;28;20028;-85
2022/02/10 20:48:06;;;;;;;19.92;14.10;;;10.70;99.90;;;;;;4953738;28;20107;-86
2022/02/10 20:50:32;;;;;;;20.13;13.55;;;10.70;99.90;;;;;;4954394;28;20038;-83
2022/02/10 20:52:58;;;;;;;28.38;17.13;;;10.70;99.90;;;;;;4953290;29;20031;-85
2022/02/10 20:55:24;;;;;;;32.47;18.75;;;10.60;99.90;;;;;;4955047;28;20106;-86
2022/02/10 20:57:50;;;;;;;25.58;15.07;;;11.00;99.90;;;;;;4955662;28;20063;-84
2022/02/10 21:00:18;;;;;;;19.05;12.93;;;10.40;99.90;;;;;;4954077;28;20055;-84
2022/02/10 21:02:46;;;;;;;29.42;17.65;;;10.40;99.90;;;;;;4954527;28;20019;-84
2022/02/10 21:10:52;;;;;;;24.83;15.70;;;10.00;99.90;;;;;;4898493;29;20032;-83
2022/02/10 21:13:18;;;;;;;19.67;12.65;;;10.10;99.90;;;;;;4897406;29;20056;-84
2022/02/10 21:15:46;;;;;;;25.58;14.77;;;10.20;99.90;;;;;;4898105;29;20033;-83
2022/02/10 21:18:13;;;;;;;19.65;11.63;;;10.10;99.90;;;;;;4897569;29;20049;-82
2022/02/10 21:20:41;;;;;;;18.33;11.30;;;10.10;99.90;;;;;;4908131;29;20498;-81
2022/02/10 21:25:41;;;;;;;12.27;8.23;;;10.10;99.90;;;;;;4898719;29;20033;-83
2022/02/10 21:28:16;;;;;;;12.95;8.43;;;10.50;99.90;;;;;;4897167;29;20596;-82
2022/02/10 21:30:44;;;;;;;13.43;9.93;;;10.40;99.90;;;;;;4897802;29;20021;-83
2022/02/10 21:33:17;;;;;;;19.30;10.95;;;10.00;99.90;;;;;;4897550;29;20044;-83
2022/02/10 21:36:23;;;;;;;13.90;9.48;;;10.40;99.90;;;;;;4880279;29;20442;-82
2022/02/10 21:38:33;;;;;;;18.88;11.98;;;10.40;99.90;;;;;;4897775;28;20031;-82
2022/02/10 21:57:03;;;;;;;22.83;16.92;;;10.50;99.90;;;;;;4942338;28;20027;-82
2022/02/10 22:05:56;;;;;;;16.67;10.90;;;10.50;99.90;;;;;;4955351;29;20404;-82
2022/02/10 22:10:34;;;;;;;16.20;11.07;;;10.70;99.90;;;;;;4957535;28;20039;-83
2022/02/10 22:21:05;;;;;;;9.90;7.80;;;10.90;99.90;;;;;;4956174;28;20055;-83
2022/02/10 22:23:35;;;;;;;15.32;7.85;;;10.90;99.90;;;;;;4955988;28;20038;-83
2022/02/10 22:26:04;;;;;;;12.95;7.32;;;11.30;99.90;;;;;;4954626;28;20388;-83
2022/02/10 22:28:40;;;;;;;13.52;7.63;;;11.60;99.90;;;;;;4956281;28;20027;-84
2022/02/10 22:36:27;;;;;;;13.40;6.72;;;11.00;99.90;;;;;;4955638;28;20114;-84
2022/02/10 22:38:57;;;;;;;13.43;7.07;;;11.00;99.90;;;;;;4955748;28;20110;-84
2022/02/10 22:41:23;;;;;;;10.70;6.25;;;11.10;99.90;;;;;;4955772;28;20027;-84
2022/02/10 22:43:51;;;;;;;12.05;6.68;;;11.20;99.90;;;;;;4954732;29;20023;-84
2022/02/10 22:46:18;;;;;;;13.75;6.90;;;11.10;99.90;;;;;;4955483;28;20115;-84
2022/02/10 22:48:46;;;;;;;16.08;7.57;;;11.20;99.90;;;;;;4955175;28;20067;-84
2022/02/10 22:51:14;;;;;;;13.95;6.82;;;11.60;99.90;;;;;;4955274;28;20062;-84
2022/02/10 22:53:40;;;;;;;12.93;6.60;;;11.90;99.90;;;;;;4956151;28;20557;-84
2022/02/10 22:56:11;;;;;;;13.35;6.60;;;11.50;99.90;;;;;;4954324;28;20031;-85
2022/02/10 22:58:39;;;;;;;10.57;6.30;;;11.70;99.90;;;;;;4954817;28;20491;-84
2022/02/10 23:01:06;;;;;;;14.75;6.65;;;12.10;99.90;;;;;;4955482;28;20032;-84
2022/02/10 23:03:32;;;;;;;14.45;6.95;;;11.70;99.90;;;;;;4955397;28;20038;-84
2022/02/10 23:05:58;;;;;;;14.18;6.45;;;11.70;99.90;;;;;;4955274;28;20031;-84
2022/02/10 23:08:24;;;;;;;15.73;7.30;;;11.80;99.90;;;;;;4955115;28;20031;-84
2022/02/10 23:10:52;;;;;;;13.30;6.80;;;11.70;99.90;;;;;;4954607;29;20019;-84
2022/02/10 23:13:22;;;;;;;12.57;6.55;;;11.90;99.90;;;;;;4954993;28;20035;-85
2022/02/10 23:15:50;;;;;;;16.10;7.10;;;11.60;99.90;;;;;;4955177;28;20074;-84
2022/02/10 23:18:20;;;;;;;17.83;10.32;;;12.10;99.90;;;;;;4955097;28;20047;-84
2022/02/10 23:20:48;;;;;;;14.63;10.02;;;11.50;99.90;;;;;;4906523;28;1439426;-82
2022/02/10 23:23:16;;;;;;;22.77;12.95;;;11.50;99.90;;;;;;4956334;28;20035;-82
2022/02/10 23:25:43;;;;;;;20.23;13.18;;;11.40;99.90;;;;;;4954906;28;20027;-82
2022/02/10 23:28:13;;;;;;;22.45;13.10;;;11.10;99.90;;;;;;4955711;28;20047;-82
2022/02/10 23:30:40;;;;;;;25.92;15.70;;;11.10;99.90;;;;;;4955743;28;20042;-82
2022/02/10 23:33:16;;;;;;;25.00;16.10;;;10.70;99.90;;;;;;4956168;28;20031;-82
2022/02/10 23:38:32;;;;;;;19.92;14.25;;;10.60;99.90;;;;;;4940587;28;20033;-82
2022/02/10 23:41:34;;;;;;;22.38;16.27;;;10.40;99.90;;;;;;4951316;29;20428;-82
2022/02/10 23:43:47;;;;;;;22.90;14.77;;;10.20;99.90;;;;;;4953431;29;20031;-82
2022/02/10 23:46:13;;;;;;;18.52;13.15;;;10.00;99.90;;;;;;4955824;28;20126;-82
2022/02/10 23:48:39;;;;;;;20.05;14.90;;;10.10;99.90;;;;;;4955489;28;20122;-82
2022/02/10 23:51:06;;;;;;;20.50;14.88;;;10.20;99.90;;;;;;4955765;28;20578;-82
2022/02/10 23:53:31;;;;;;;19.75;14.18;;;10.10;99.90;;;;;;4955426;28;20106;-82
2022/02/10 23:56:00;;;;;;;21.90;13.73;;;10.10;99.90;;;;;;4954851;29;20102;-82
2022/02/10 23:58:47;;;;;;;19.55;13.88;;;10.00;99.90;;;;;;4955067;28;20578;-82
